Weather observations for the past three days for
Knoxville
Imperial (Metric)
Date Time (cdt) Wind (mph) Vis. (mi.) Weather Sky Cond. Temperature (ºF) Relative Humidity Wind Chill (°F) Heat Index (°F) Pressure Precipitation (in)
Air Dwpt 6 hour altimeter (in) sea level (mb) 1 hr 3 hr 6 hr
Max. Min.
10 11:15 Vrbl 7 10.00 Fair CLR 60.8 24.8 25% 30.18 0.0
10 10:55 NW 6 10.00 Fair CLR 60.8 26.6 27% 30.19 0.0
10 10:15 N 3 10.00 Fair CLR 59 26.6 29% 30.16 0.0
10 09:55 Vrbl 5 10.00 Fair CLR 57.2 28.4 33% 30.16 0.0
10 09:35 Vrbl 3 10.00 Fair CLR 55.4 30.2 38% 30.15 0.0
10 09:15 Calm 10.00 Fair CLR 53.6 30.2 41% 30.15 0.0
10 08:55 NW 5 10.00 Fair CLR 51.8 28.4 41% 30.15 0.0
10 08:35 NW 3 10.00 Fair CLR 51.8 28.4 41% 30.14 0.0
10 08:15 W 6 10.00 Fair CLR 50 28.4 43% 48 30.14 0.0
10 07:55 W 6 10.00 Fair CLR 48.2 28.4 46% 46 30.14 0.0
10 07:35 W 3 10.00 Fair CLR 46.4 28.4 50% 30.13 0.0
10 07:15 Calm 10.00 Fair CLR 46.4 30.2 53% 30.13 0.0
10 06:55 Calm 10.00 Fair CLR 42.8 28.4 57% 30.12 0.0
10 06:35 NW 5 10.00 Fair CLR 41 26.6 57% 38 30.11 0.0
10 06:15 NW 5 10.00 Fair CLR 42.8 24.8 49% 41 30.1 0.0
10 05:55 N 5 10.00 Fair CLR 46.4 24.8 43% 45 30.1 0.0
10 05:35 N 7 10.00 Fair CLR 46.4 24.8 43% 43 30.09 0.0
10 05:15 N 6 10.00 Fair CLR 44.6 24.8 46% 42 30.08 0.0
10 04:55 N 6 10.00 Fair CLR 46.4 24.8 43% 44 30.08 0.0
10 04:35 N 6 10.00 Fair CLR 46.4 24.8 43% 44 30.07 0.0
10 04:20 N 7 10.00 Fair CLR 48.2 24.8 40% 46 30.07 0.0
10 03:55 N 8 10.00 Fair CLR 48.2 23 37% 45 30.06 0.0
10 03:35 N 8 10.00 Fair CLR 50 23 35% 47 30.06 0.0
10 03:15 N 8 10.00 Fair CLR 48.2 23 37% 45 30.06 0.0
10 02:55 N 8 10.00 Fair CLR 50 23 35% 47 30.04 0.0
10 02:35 N 8 10.00 Fair CLR 50 23 35% 47 30.04 0.0
10 02:15 N 7 10.00 Fair CLR 50 23 35% 48 30.04 0.0
10 01:55 N 8 10.00 Fair CLR 51.8 23 32% 30.02 0.0
10 01:35 N 7 10.00 Fair CLR 51.8 23 32% 30.02 0.0
10 01:15 N 7 10.00 Fair CLR 51.8 23 32% 30.01 0.0
10 00:55 N 8 10.00 Fair CLR 53.6 23 30% 30 0.0
10 00:35 N 8 10.00 Fair CLR 53.6 23 30% 29.99 0.0
10 00:15 N 10 10.00 Fair CLR 55.4 23 28% 29.98 0.0
09 23:55 N 12 G 18 10.00 Fair CLR 57.2 23 27% 29.97 0.0
09 23:35 N 12 10.00 Fair CLR 57.2 23 27% 29.96 0.0
09 23:15 N 10 10.00 Fair CLR 57.2 24.8 29% 29.96 0.0
09 22:55 N 8 10.00 Fair CLR 57.2 24.8 29% 29.95 0.0
09 22:35 N 10 10.00 Fair CLR 59 24.8 27% 29.94 0.0
09 22:15 N 12 10.00 Fair CLR 60.8 24.8 25% 29.93 0.0
09 21:55 N 12 G 17 10.00 Fair CLR 60.8 24.8 25% 29.92 0.0
09 21:35 N 15 G 21 10.00 A Few Clouds FEW120 62.6 26.6 25% 29.91 0.0
09 21:15 N 9 10.00 Mostly Cloudy BKN120 62.6 28.4 27% 29.9 0.0
09 20:55 N 9 10.00 Mostly Cloudy BKN120 64.4 28.4 26% 29.88 0.0
09 20:40 N 12 10.00 Partly Cloudy SCT130 64.4 28.4 26% 29.87 0.0
09 20:15 N 9 10.00 A Few Clouds FEW120 66.2 28.4 24% 29.86 0.0
09 19:55 N 14 10.00 Mostly Cloudy SCT120 BKN140 68 30.2 24% 29.85 0.0
09 19:35 N 14 10.00 Partly Cloudy SCT130 68 32 26% 29.83 0.0
09 19:15 N 12 G 17 10.00 Fair CLR 68 32 26% 29.83 0.0
09 18:55 N 13 9.00 A Few Clouds FEW120 68 33.8 28% 29.83 0.0
09 18:35 NW 14 G 21 10.00 Fair CLR 69.8 37.4 31% 29.82 0.0
09 18:15 NW 14 G 20 10.00 A Few Clouds FEW130 69.8 41 35% 29.82 0.0
09 17:55 NW 15 8.00 Fair CLR 69.8 41 35% 29.8 0.0
09 17:35 N 18 10.00 Fair CLR 69.8 41 35% 29.8 0.0
09 17:15 N 17 10.00 Fair CLR 69.8 42.8 38% 29.79 0.0
09 16:55 N 16 10.00 Fair CLR 69.8 42.8 38% 29.79 0.0
09 16:35 N 14 G 25 10.00 Fair CLR 69.8 42.8 38% 29.79 0.0
09 16:15 N 17 10.00 Fair CLR 71.6 41 33% 29.79 0.0
09 15:55 NW 14 10.00 Fair CLR 71.6 41 33% 29.78 0.0
09 15:35 NW 14 G 21 10.00 Fair CLR 71.6 37.4 29% 29.79 0.0
09 15:15 NW 13 G 21 10.00 Fair CLR 71.6 35.6 27% 29.78 0.0
09 14:55 NW 13 10.00 Fair CLR 73.4 33.8 23% 29.78 0.0
09 14:35 NW 13 G 21 10.00 Fair CLR 73.4 32 22% 29.77 0.0
09 14:15 W 12 G 20 10.00 Fair CLR 75.2 32 21% 76 29.77 0.0
09 13:55 NW 15 G 23 10.00 A Few Clouds FEW110 75.2 32 21% 76 29.77 0.0
09 13:35 W 23 10.00 Fair and Breezy CLR 75.2 32 21% 76 29.76 0.0
09 13:15 NW 18 G 25 10.00 Fair CLR 73.4 32 22% 29.76 0.0
09 12:55 NW 15 10.00 Fair CLR 73.4 32 22% 29.76 0.0
09 12:35 NW 13 10.00 Fair CLR 73.4 32 22% 29.76 0.0
09 12:15 NW 16 G 23 10.00 Fair CLR 71.6 32 23% 29.77 0.0
09 11:55 W 16 G 23 10.00 Fair CLR 71.6 32 23% 29.77 0.0
09 11:35 NW 14 G 22 10.00 Fair CLR 71.6 33.8 25% 29.77 0.0
09 11:15 NW 12 G 24 9.00 Fair CLR 69.8 33.8 27% 29.77 0.0
09 10:55 N 18 G 25 10.00 Fair CLR 69.8 35.6 29% 29.76 0.0
09 10:35 NW 23 G 30 10.00 Fair and Breezy CLR 71.6 33.8 25% 29.75 0.0
09 10:15 W 9 9.00 Fair CLR 71.6 35.6 27% 29.74 0.0
09 09:55 W 13 10.00 Fair CLR 68 37.4 33% 29.73 0.0
09 09:35 W 13 10.00 Fair CLR 66.2 41 40% 29.73 0.0
09 08:35 SW 7 10.00 Fair CLR 59 44.6 59% 29.73 0.0
09 08:15 W 7 10.00 Fair CLR 57.2 44.6 63% 29.73 0.0
09 07:55 W 7 10.00 Fair CLR 53.6 44.6 72% 29.73 0.0
09 07:35 W 7 10.00 Fair CLR 51.8 46.4 82% 29.72 0.0
09 07:15 SW 8 10.00 Fair CLR 50 46.4 88% 47 29.71 0.0
09 06:55 W 6 10.00 Fair CLR 48.2 46.4 94% 46 29.71 0.0
09 06:35 W 8 10.00 Fair CLR 46.4 44.6 93% 43 29.71 0.0
09 06:15 NW 9 10.00 Fair CLR 46.4 44.6 93% 42 29.7 0.0
09 06:00 W 8 10.00 Fair CLR 46.4 42.8 87% 43 29.69 0.0
09 05:35 SW 8 10.00 Fair CLR 50 46.4 88% 47 29.68 0.0
09 05:15 SW 7 10.00 Fair CLR 48.2 44.6 87% 46 29.68 0.0
09 04:55 W 8 10.00 Fair CLR 48.2 44.6 87% 45 29.69 0.0
09 04:35 SW 7 10.00 Fair CLR 50 46.4 88% 48 29.69 0.0
09 04:15 W 8 10.00 Fair CLR 50 46.4 88% 47 29.69 0.0
09 03:55 W 9 10.00 Fair CLR 51.8 48.2 88% 29.69 0.0
09 03:35 W 7 10.00 Fair CLR 50 46.4 88% 48 29.68 0.0
09 03:15 W 7 10.00 Fair CLR 50 46.4 88% 48 29.68 0.0
09 03:00 W 7 10.00 Fair CLR 51.8 48.2 88% 29.68 0.0
09 02:35 SW 7 10.00 Fair CLR 53.6 48.2 82% 29.69 0.0
09 02:15 W 10 10.00 Fair CLR 53.6 48.2 82% 29.7 0.0
09 01:55 W 8 10.00 A Few Clouds FEW110 53.6 48.2 82% 29.7 0.0
09 01:35 SW 8 G 15 10.00 A Few Clouds FEW110 55.4 50 82% 29.69 0.0
09 01:15 SW 12 10.00 Fair CLR 57.2 50 77% 29.69 0.0
09 00:55 SW 12 10.00 Fair CLR 57.2 50 77% 29.69 0.0
09 00:35 SW 10 10.00 Fair CLR 57.2 50 77% 29.69 0.0
09 00:15 SW 13 10.00 Fair CLR 57.2 50 77% 29.69 0.0
08 23:55 SW 12 G 18 10.00 Fair CLR 57.2 50 77% 29.69 0.0
08 23:35 SW 12 10.00 Fair CLR 59 50 72% 29.7 0.0
08 23:15 SW 13 10.00 Fair CLR 59 50 72% 29.7 0.0
08 22:55 SW 13 G 21 10.00 Fair CLR 59 50 72% 29.7 0.0
08 22:35 SW 13 10.00 Fair CLR 59 50 72% 29.7 0.0
08 22:15 SW 13 10.00 Mostly Cloudy BKN120 60.8 50 68% 29.7 0.0
08 21:55 SW 12 G 17 10.00 Mostly Cloudy BKN120 60.8 50 68% 29.7 0.0
08 21:35 SW 14 10.00 Partly Cloudy SCT120 62.6 50 64% 29.7 0.0
08 21:15 SW 10 10.00 Mostly Cloudy BKN110 BKN130 62.6 48.2 60% 29.7 0.0
08 20:55 S 10 G 16 10.00 A Few Clouds FEW100 64.4 48.2 56% 29.69 0.0
08 20:35 SW 13 G 18 10.00 Fair CLR 64.4 46.4 52% 29.68 0.0
08 20:15 SW 10 10.00 Fair CLR 66.2 42.8 43% 29.68 0.0
08 19:55 SW 12 10.00 Fair CLR 68 42.8 40% 29.67 0.0
08 19:35 SW 12 10.00 Fair CLR 69.8 41 35% 29.67 0.0
08 19:15 SW 8 G 15 10.00 Fair CLR 69.8 39.2 33% 29.67 0.0
08 18:55 SW 8 G 14 10.00 Fair CLR 71.6 37.4 29% 29.68 0.0
08 18:35 S 13 10.00 Fair CLR 71.6 39.2 31% 29.68 0.0
08 18:15 SW 13 10.00 Fair CLR 71.6 37.4 29% 29.69 0.0
08 17:55 S 7 G 15 9.00 Fair CLR 71.6 39.2 31% 29.69 0.0
08 17:35 SW 10 10.00 Fair CLR 71.6 37.4 29% 29.69 0.0
08 17:15 SW 12 10.00 Fair CLR 71.6 39.2 31% 29.7 0.0
08 16:55 SW 12 10.00 A Few Clouds FEW080 73.4 37.4 27% 29.7 0.0
08 16:35 S 6 G 12 9.00 Fair CLR 71.6 39.2 31% 29.71 0.0
08 16:15 SW 10 10.00 Fair CLR 71.6 35.6 27% 29.71 0.0
08 15:55 W 10 G 18 10.00 A Few Clouds FEW085 73.4 35.6 25% 29.72 0.0
08 15:35 SW 8 G 16 10.00 Fair CLR 71.6 35.6 27% 29.72 0.0
08 15:15 W 13 10.00 Fair CLR 71.6 35.6 27% 29.73 0.0
08 14:55 S 8 7.00 Fair CLR 71.6 35.6 27% 29.74 0.0
08 14:35 Vrbl 7 G 16 10.00 Fair CLR 71.6 35.6 27% 29.75 0.0
08 14:15 W 10 7.00 Fair CLR 71.6 33.8 25% 29.75 0.0
08 13:55 S 8 10.00 Fair CLR 69.8 39.2 33% 29.76 0.0
08 13:35 S 7 9.00 Fair CLR 69.8 37.4 31% 29.76 0.0
08 13:15 Vrbl 6 G 13 10.00 Fair CLR 69.8 37.4 31% 29.77 0.0
08 12:55 S 6 10.00 Fair CLR 68 33.8 28% 29.77 0.0
08 12:35 S 6 9.00 Fair CLR 68 39.2 35% 29.78 0.0
08 12:15 Vrbl 5 G 12 10.00 Fair CLR 68 35.6 30% 29.78 0.0
08 11:55 Vrbl 5 10.00 Fair CLR 66.2 41 40% 29.79 0.0
08 11:35 Calm 10.00 Fair CLR 66.2 44.6 46% 29.8 0.0
08 11:15 S 3 2.00 Fair with Haze CLR 64.4 42.8 46% 29.81 0.0
08 10:55 Calm 8.00 Fair CLR 64.4 46.4 52% 29.81 0.0
08 10:35 S 3 7.00 Fair CLR 60.8 46.4 59% 29.81 0.0
08 10:15 Calm 9.00 Fair CLR 59 46.4 63% 29.81 0.0
08 09:55 S 5 2.50 Fair with Haze CLR 57.2 46.4 67% 29.82 0.0
08 09:35 SE 5 1.00 Fair with Haze CLR 55.4 44.6 67% 29.82 0.0
08 09:15 Calm 10.00 Fair CLR 53.6 44.6 72% 29.83 0.0
08 08:55 S 5 0.00 Fair CLR 51.8 42.8 72% 29.83 0.0
08 08:35 Calm 9.00 Fair CLR 51.8 41 67% 29.82 0.0
08 08:15 E 5 10.00 Fair CLR 50 41 71% 49 29.8 0.0
08 07:55 S 5 3.00 Fair with Haze CLR 48.2 39.2 71% 47 29.81 0.0
08 07:35 E 7 10.00 Fair CLR 48.2 37.4 66% 46 29.8 0.0
08 07:15 SE 7 10.00 Fair CLR 50 35.6 58% 48 29.8 0.0
08 06:55 E 7 10.00 A Few Clouds FEW070 FEW090 FEW130 50 35.6 58% 48 29.81 0.0
08 06:35 E 5 9.00 Mostly Cloudy FEW070 BKN085 48.2 33.8 58% 47 29.81 0.0
08 06:15 E 5 9.00 Mostly Cloudy BKN090 BKN120 48.2 33.8 58% 47 29.81 0.0
08 05:55 E 3 10.00 Overcast SCT100 OVC120 50 33.8 54% 29.82 0.0
08 05:35 Calm 9.00 Partly Cloudy BKN120 SCT190 48.2 35.6 62% 29.81 0.0
08 05:15 NE 5 10.00 Fair CLR 46.4 35.6 66% 45 29.82 0.0
08 04:55 NE 5 8.00 A Few Clouds FEW160 46.4 35.6 66% 45 29.81 0.0
08 04:35 Calm 10.00 Fair CLR 46.4 37.4 71% 29.82 0.0
08 04:15 Calm 10.00 Fair CLR 48.2 37.4 66% 29.82 0.0
08 03:55 Calm 10.00 Fair CLR 50 39.2 67% 29.81 0.0
08 03:35 NE 5 10.00 Fair CLR 50 39.2 67% 49 29.8 0.0
08 03:15 NE 5 10.00 Fair CLR 50 41 71% 49 29.8 0.0
08 02:55 NE 6 10.00 Fair CLR 50 41 71% 48 29.8 0.0
08 02:35 N 5 10.00 Fair CLR 50 41 71% 49 29.81 0.0
08 02:15 NE 5 10.00 Fair CLR 51.8 41 67% 29.81 0.0
08 01:55 NE 7 10.00 Fair CLR 51.8 41 67% 29.81 0.0
08 01:35 NE 6 1.50 Fair with Haze CLR 51.8 39.2 62% 29.81 0.0
08 01:15 NE 3 10.00 Fair CLR 53.6 39.2 58% 29.81 0.0
08 00:55 E 5 10.00 Fair CLR 55.4 39.2 55% 29.81 0.0
08 00:35 E 6 10.00 Fair CLR 55.4 39.2 55% 29.81 0.0
08 00:15 NE 6 10.00 Fair CLR 55.4 39.2 55% 29.81 0.0
07 23:55 NE 5 10.00 A Few Clouds FEW070 55.4 39.2 55% 29.82 0.0
07 23:35 NE 6 10.00 Mostly Cloudy BKN070 BKN085 57.2 39.2 51% 29.82 0.0
07 23:15 E 6 10.00 Overcast BKN075 OVC090 59 39.2 48% 29.82 0.0
07 22:50 E 6 10.00 Overcast BKN080 OVC095 59 39.2 48% 29.83 0.0
07 22:35 E 5 10.00 Overcast BKN085 OVC100 59 39.2 48% 29.83 0.0
07 22:15 NE 6 10.00 Overcast BKN085 OVC100 59 39.2 48% 29.83 0.0
07 21:55 E 6 10.00 Overcast OVC085 60.8 39.2 45% 29.82 0.0
07 21:35 E 8 10.00 Overcast OVC090 60.8 37.4 42% 29.82 0.0
07 21:15 NE 7 10.00 Mostly Cloudy BKN090 60.8 39.2 45% 29.81 0.0
07 20:55 NE 6 10.00 Overcast OVC085 62.6 37.4 39% 29.8 0.0
07 19:55 Calm 10.00 Mostly Cloudy BKN085 BKN110 64.4 37.4 37% 29.78 0.0
07 19:35 S 5 10.00 Overcast BKN090 OVC110 64.4 37.4 37% 29.78 0.0
07 19:15 SW 7 10.00 Mostly Cloudy BKN090 BKN110 66.2 35.6 32% 29.78 0.0
07 18:55 SW 9 10.00 Mostly Cloudy BKN090 BKN110 68 33.8 28% 29.78 0.0
07 18:35 W 12 G 21 10.00 Partly Cloudy SCT095 SCT120 68 33.8 28% 29.78 0.0
07 18:15 W 18 G 24 10.00 A Few Clouds FEW100 69.8 33.8 27% 29.78 0.0
07 17:55 SW 8 G 20 10.00 A Few Clouds FEW080 FEW090 FEW110 68 35.6 30% 29.79 0.0
07 17:35 W 15 G 22 10.00 Partly Cloudy SCT075 SCT090 69.8 33.8 27% 29.79 0.0
07 17:15 SW 13 G 21 10.00 Partly Cloudy SCT075 SCT090 68 33.8 28% 29.79 0.0
07 16:55 SW 16 G 22 8.00 Partly Cloudy SCT080 SCT090 68 33.8 28% 29.8 0.0
07 16:35 W 12 10.00 A Few Clouds FEW090 66.2 33.8 30% 29.81 0.0
07 16:15 W 14 G 20 10.00 Partly Cloudy FEW080 SCT090 66.2 33.8 30% 29.81 0.0
07 15:55 W 10 G 18 10.00 A Few Clouds FEW085 66.2 33.8 30% 29.82 0.0
07 15:35 SW 15 G 24 10.00 A Few Clouds FEW080 FEW090 68 33.8 28% 29.82 0.0
07 15:15 W 14 10.00 Partly Cloudy SCT080 66.2 32 28% 29.83 0.0
07 14:55 W 7 G 14 9.00 Partly Cloudy SCT080 66.2 33.8 30% 29.83 0.0
07 14:35 NW 7 10.00 Fair CLR 64.4 35.6 34% 29.84 0.0
07 14:15 Calm 10.00 A Few Clouds FEW065 64.4 39.2 40% 29.84 0.0
07 13:55 Vrbl 6 10.00 Mostly Cloudy BKN065 62.6 37.4 39% 29.85 0.0
07 13:35 Vrbl 7 G 13 10.00 Partly Cloudy SCT060 64.4 41 43% 29.85 0.0
07 13:15 N 9 G 22 10.00 Partly Cloudy SCT060 SCT070 64.4 37.4 37% 29.86 0.0
07 12:55 NW 16 10.00 Partly Cloudy SCT060 SCT110 64.4 37.4 37% 29.87 0.0
07 12:35 Vrbl 6 G 15 10.00 Partly Cloudy FEW050 FEW060 SCT110 62.6 39.2 42% 29.88 0.0
07 12:15 Vrbl 3 10.00 A Few Clouds FEW050 FEW110 60.8 41 48% 29.89 0.0
07 11:55 Calm 10.00 Fair CLR 59 39.2 48% 29.91 0.0
07 11:35 W 8 10.00 A Few Clouds FEW095 57.2 39.2 51% 29.91 0.0
Date Time (cdt) Wind (mph) Vis. (mi.) Weather Sky Cond. Air Dwpt Max. Min. Relative Humidity Wind Chill (°F) Heat Index (°F) altimeter (in) sea level (mb) 1 hr 3 hr 6 hr
6 hour
Temperature (ºF) Pressure Precipitation (in)